Time;durP1;ratioP1;P1;durP2;ratioP2;P2;SDS_P1;SDS_P2;PMS_P1;PMS_P2;Temp;Humidity;BMP_temperature;BMP_pressure;BME280_temperature;BME280_humidity;BME280_pressure;Samples;Min_cycle;Max_cycle;Signal;HPM_P1;HPM_P2
2023/09/04 00:00:01;;;;;;;4.28;3.88;;;;;;;15.39;100.00;102727.69;5130420;28;20261;-36
2023/09/04 00:02:26;;;;;;;;;;;;;;;15.51;100.00;102727.84;5131376;28;20041;-37
2023/09/04 00:04:52;;;;;;;4.50;4.10;;;;;;;15.35;100.00;102730.00;5130538;28;19918;-37
2023/09/04 00:07:17;;;;;;;;;;;;;;;15.46;100.00;102728.47;5131217;28;20318;-37
2023/09/04 00:09:43;;;;;;;4.10;3.70;;;;;;;15.26;100.00;102730.47;5122893;28;19907;-37
2023/09/04 00:12:08;;;;;;;;;;;;;;;15.37;100.00;102722.47;5117553;28;20459;-37
2023/09/04 00:14:33;;;;;;;5.28;4.03;;;;;;;15.16;100.00;102715.41;5117038;28;20300;-36
2023/09/04 00:16:59;;;;;;;;;;;;;;;15.29;100.00;102717.25;5117708;28;20049;-36
2023/09/04 00:19:24;;;;;;;5.03;4.43;;;;;;;15.10;100.00;102718.19;5116547;28;19914;-36
2023/09/04 00:21:50;;;;;;;;;;;;;;;15.25;100.00;102717.91;5117629;28;20024;-36
2023/09/04 00:24:15;;;;;;;4.88;4.38;;;;;;;15.09;100.00;102709.19;5117023;28;20010;-37
2023/09/04 00:26:41;;;;;;;4.93;4.47;;;;;;;15.17;100.00;102716.25;5116485;28;20094;-36
2023/09/04 00:29:06;;;;;;;;;;;;;;;15.25;100.00;102718.75;5117395;28;20035;-36
2023/09/04 00:31:31;;;;;;;4.57;4.17;;;;;;;15.07;100.00;102716.72;5117003;28;20319;-36
2023/09/04 00:33:57;;;;;;;5.22;4.47;;;;;;;14.98;100.00;102712.53;5116591;28;20748;-36
2023/09/04 00:36:22;;;;;;;;;;;;;;;15.12;100.00;102722.34;5116998;28;20345;-36
2023/09/04 00:38:47;;;;;;;4.80;4.30;;;;;;;14.83;100.00;102711.97;5116405;28;20019;-36
2023/09/04 00:41:15;;;;;;;4.13;3.75;;;;;;;14.83;100.00;102709.25;5117025;28;20294;-36
2023/09/04 00:43:41;;;;;;;5.03;4.40;;;;;;;14.89;100.00;102722.88;5116310;28;20081;-36
2023/09/04 00:46:07;;;;;;;4.60;4.20;;;;;;;14.83;100.00;102725.59;5116667;28;20440;-36
2023/09/04 00:48:33;;;;;;;;;;;;;;;15.00;100.00;102725.97;5116850;28;20036;-36
2023/09/04 00:51:00;;;;;;;4.65;4.25;;;;;;;14.79;100.00;102716.19;5116366;28;19910;-36
2023/09/04 00:53:26;;;;;;;5.85;4.72;;;;;;;14.68;100.00;102718.50;5116212;28;20500;-36
2023/09/04 00:55:51;;;;;;;5.70;4.38;;;;;;;14.66;100.00;102715.16;5116147;28;20023;-36
2023/09/04 00:58:17;;;;;;;7.50;4.80;;;;;;;14.67;100.00;102726.88;5116456;28;20043;-36
2023/09/04 01:00:44;;;;;;;6.47;4.32;;;;;;;14.60;100.00;102716.03;5115847;28;20019;-36
2023/09/04 01:03:12;;;;;;;5.05;4.55;;;;;;;14.55;100.00;102718.53;5116103;28;20020;-36
2023/09/04 01:05:37;;;;;;;5.15;4.07;;;;;;;14.63;100.00;102709.31;5115739;28;20019;-36
2023/09/04 01:08:04;;;;;;;5.13;4.43;;;;;;;14.59;100.00;102725.25;5116026;28;20425;-37
2023/09/04 01:10:39;;;;;;;4.85;4.20;;;;;;;14.55;100.00;102713.09;5115876;28;20434;-37
2023/09/04 01:13:12;;;;;;;5.90;4.38;;;;;;;14.63;100.00;102726.47;5116453;28;20015;-36
2023/09/04 01:15:38;;;;;;;4.32;3.92;;;;;;;14.61;100.00;102709.53;5116057;28;20024;-37
2023/09/04 01:18:04;;;;;;;4.25;3.85;;;;;;;14.60;100.00;102721.47;5116237;28;20436;-36
2023/09/04 01:20:29;;;;;;;;;;;;;;;14.72;100.00;102718.09;5115511;28;20047;-36
2023/09/04 01:22:56;;;;;;;4.35;3.95;;;;;;;14.56;100.00;102722.94;5115534;28;20374;-37
2023/09/04 01:25:38;;;;;;;4.70;4.05;;;;;;;14.50;100.00;102722.97;5115265;28;20039;-36
2023/09/04 01:28:27;;;;;;;5.28;4.78;;;;;;;14.38;100.00;102714.53;5115236;28;20016;-36
2023/09/04 01:31:14;;;;;;;5.75;4.47;;;;;;;14.36;100.00;102720.22;5104494;28;20122;-37
2023/09/04 01:33:45;;;;;;;4.85;4.35;;;;;;;14.24;100.00;102710.16;5115735;28;20106;-36
2023/09/04 01:36:14;;;;;;;5.00;4.50;;;;;;;14.18;100.00;102693.63;5131067;27;20022;-37
2023/09/04 01:38:42;;;;;;;4.93;4.45;;;;;;;14.22;100.00;102707.66;5114992;28;20404;-36
2023/09/04 01:41:08;;;;;;;4.30;3.90;;;;;;;14.22;100.00;102701.38;5115226;28;20057;-36
2023/09/04 01:43:33;;;;;;;5.75;4.93;;;;;;;14.22;100.00;102709.53;5115587;28;20066;-37
2023/09/04 01:45:59;;;;;;;;;;;;;;;14.36;100.00;102705.75;5115578;28;20028;-36
2023/09/04 01:48:24;;;;;;;4.45;4.00;;;;;;;14.20;100.00;102701.59;5115179;28;20359;-36
2023/09/04 01:50:49;;;;;;;5.38;4.88;;;;;;;14.18;100.00;102701.78;5115113;28;20018;-37
2023/09/04 01:53:15;;;;;;;;;;;;;;;14.32;100.00;102702.63;5115756;28;20129;-36
2023/09/04 01:55:40;;;;;;;4.43;4.03;;;;;;;14.26;100.00;102698.03;5114698;28;19954;-36
2023/09/04 01:58:05;;;;;;;5.20;4.80;;;;;;;14.16;100.00;102708.50;5115243;28;20039;-37
2023/09/04 02:00:31;;;;;;;5.35;4.82;;;;;;;14.13;100.00;102703.47;5114900;28;20319;-36
2023/09/04 02:02:56;;;;;;;4.93;4.53;;;;;;;14.11;100.00;102703.69;5115214;28;20030;-36
2023/09/04 02:05:21;;;;;;;;;;;;;;;14.25;100.00;102701.81;5115135;28;20024;-36
2023/09/04 02:07:46;;;;;;;5.00;4.50;;;;;;;13.99;100.00;102708.06;5114787;28;19952;-36
2023/09/04 02:10:12;;;;;;;5.27;4.77;;;;;;;13.96;100.00;102696.75;5114713;28;20756;-36
2023/09/04 02:12:37;;;;;;;4.32;4.00;;;;;;;14.08;100.00;102697.81;5114765;28;20299;-37
2023/09/04 02:15:02;;;;;;;;;;;;;;;14.18;100.00;102700.94;5115123;28;20109;-36
2023/09/04 02:17:28;;;;;;;5.55;4.50;;;;;;;14.01;100.00;102695.13;5115066;28;19914;-37
2023/09/04 02:19:53;;;;;;;5.00;4.57;;;;;;;13.91;100.00;102679.22;5114559;28;20336;-36
2023/09/04 02:22:19;;;;;;;5.25;4.75;;;;;;;13.97;100.00;102693.84;5115122;28;20030;-36
2023/09/04 02:24:47;;;;;;;;;;;;;;;14.08;100.00;102684.22;5115164;28;20027;-37
2023/09/04 02:27:13;;;;;;;5.05;4.50;;;;;;;13.85;100.00;102690.06;5114786;28;20345;-37
2023/09/04 02:29:38;;;;;;;5.25;4.53;;;;;;;13.79;100.00;102689.00;5114197;28;20098;-36
2023/09/04 02:32:04;;;;;;;5.80;4.63;;;;;;;13.78;100.00;102689.22;5114492;28;20072;-37
2023/09/04 02:34:30;;;;;;;6.53;5.38;;;;;;;13.65;100.00;102690.03;5114300;28;20271;-36
2023/09/04 02:36:55;;;;;;;;;;;;;;;13.82;100.00;102695.94;5115634;28;20153;-37
2023/09/04 02:39:20;;;;;;;5.93;4.53;;;;;;;13.69;100.00;102675.00;5114203;28;19908;-36
2023/09/04 02:41:46;;;;;;;;;;;;;;;13.87;100.00;102683.38;5130349;27;20058;-36
2023/09/04 02:44:11;;;;;;;4.83;4.37;;;;;;;13.83;100.00;102686.72;5113955;28;19907;-36
2023/09/04 02:46:36;;;;;;;6.13;5.23;;;;;;;13.62;100.00;102661.41;5114581;28;20250;-36
2023/09/04 02:49:02;;;;;;;7.47;4.77;;;;;;;13.76;100.00;102685.88;5114340;28;20280;-36
2023/09/04 02:51:27;;;;;;;4.90;4.40;;;;;;;13.73;100.00;102675.41;5114722;28;20338;-36
2023/09/04 02:53:53;;;;;;;4.82;4.35;;;;;;;13.64;100.00;102667.47;5114466;28;20367;-36
2023/09/04 02:56:18;;;;;;;4.97;4.07;;;;;;;13.75;100.00;102676.88;5114134;28;20020;-36
2023/09/04 02:58:43;;;;;;;4.50;4.07;;;;;;;13.70;100.00;102682.09;5114892;28;20047;-37
2023/09/04 03:01:08;;;;;;;5.10;4.50;;;;;;;13.74;100.00;102679.81;5114346;28;20277;-37
2023/09/04 03:03:34;;;;;;;5.25;4.75;;;;;;;13.78;100.00;102687.34;5113998;28;20262;-37
2023/09/04 03:06:09;;;;;;;5.28;4.50;;;;;;;13.67;100.00;102659.94;5113971;28;20099;-37
2023/09/04 03:08:34;;;;;;;5.20;4.70;;;;;;;13.73;100.00;102672.72;5114036;28;20044;-37
2023/09/04 03:11:00;;;;;;;;;;;;;;;13.88;100.00;102674.16;5114055;28;20103;-37
2023/09/04 03:13:25;;;;;;;5.73;5.23;;;;;;;13.74;100.00;102658.91;5096591;28;19908;-37
2023/09/04 03:15:50;;;;;;;6.65;5.80;;;;;;;13.76;100.00;102677.72;5095972;28;20270;-35
2023/09/04 03:18:15;;;;;;;7.87;6.03;;;;;;;13.74;100.00;102668.94;5114067;28;20382;-36
2023/09/04 03:20:41;;;;;;;7.70;7.00;;;;;;;13.70;100.00;102668.50;5114186;28;20741;-37
2023/09/04 03:23:07;;;;;;;7.00;6.40;;;;;;;13.71;100.00;102656.56;5114146;28;20782;-37
2023/09/04 03:25:33;;;;;;;8.35;7.03;;;;;;;13.61;100.00;102645.28;5114323;28;20023;-37
2023/09/04 03:27:58;;;;;;;;;;;;;;;13.69;100.00;102641.53;5115119;28;20061;-37
2023/09/04 03:30:23;;;;;;;8.25;7.40;;;;;;;13.60;100.00;102632.75;5113799;28;19903;-37
2023/09/04 03:32:49;;;;;;;8.85;8.05;;;;;;;13.59;100.00;102636.50;5113807;28;20115;-37
2023/09/04 03:35:17;;;;;;;8.18;7.47;;;;;;;13.63;100.00;102644.03;5113658;28;20027;-37
2023/09/04 03:37:42;;;;;;;8.65;7.82;;;;;;;13.58;100.00;102645.72;5113618;28;20027;-37
2023/09/04 03:40:23;;;;;;;;;;;;;;;13.75;100.00;102646.13;5114435;28;20110;-37
2023/09/04 03:42:50;;;;;;;7.35;6.68;;;;;;;13.68;100.00;102639.88;5114272;28;19911;-37
2023/09/04 03:45:15;;;;;;;;;;;;;;;13.71;100.00;102645.69;5117027;28;20028;-37
2023/09/04 03:47:43;;;;;;;8.75;7.95;;;;;;;13.48;100.00;102639.84;5117784;28;19903;-37
2023/09/04 03:50:10;;;;;;;9.73;8.48;;;;;;;13.50;100.00;102641.28;5117650;28;20028;-35
2023/09/04 03:52:35;;;;;;;15.93;8.75;;;;;;;13.54;100.00;102631.69;5118199;28;20020;-37
2023/09/04 03:55:01;;;;;;;;;;;;;;;13.69;100.00;102636.94;5117812;28;20610;-36
2023/09/04 03:57:26;;;;;;;8.87;8.07;;;;;;;13.61;100.00;102635.25;5117144;28;19908;-35
2023/09/04 03:59:52;;;;;;;9.02;8.23;;;;;;;13.63;100.00;102637.78;5116883;28;20273;-36
2023/09/04 04:02:18;;;;;;;9.05;8.18;;;;;;;13.53;100.00;102632.75;5117250;28;20079;-37
2023/09/04 04:04:43;;;;;;;9.27;8.47;;;;;;;13.49;100.00;102623.31;5117193;28;20440;-37
2023/09/04 04:07:09;;;;;;;;;;;;;;;13.69;100.00;102627.94;5117835;28;20533;-37
2023/09/04 04:09:34;;;;;;;9.35;8.55;;;;;;;13.59;100.00;102620.19;5117016;28;19907;-37
2023/09/04 04:12:00;;;;;;;8.60;7.70;;;;;;;13.63;100.00;102622.28;5117964;28;20027;-37
2023/09/04 04:14:25;;;;;;;9.15;8.35;;;;;;;13.61;100.00;102628.97;5117260;28;20018;-37
2023/09/04 04:16:50;;;;;;;8.52;7.72;;;;;;;13.70;100.00;102616.84;5117350;28;20156;-37
2023/09/04 04:19:16;;;;;;;8.65;7.85;;;;;;;13.65;100.00;102619.34;5117416;28;20418;-37
2023/09/04 04:21:41;;;;;;;9.45;8.55;;;;;;;13.62;100.00;102623.34;5117212;28;20069;-37
2023/09/04 04:24:06;;;;;;;8.90;8.10;;;;;;;13.48;100.00;102620.81;5117377;28;20024;-37
2023/09/04 04:26:32;;;;;;;8.13;7.40;;;;;;;13.58;100.00;102619.38;5116457;28;20452;-37
2023/09/04 04:28:57;;;;;;;8.98;8.18;;;;;;;13.34;100.00;102590.91;5117302;28;20114;-37
2023/09/04 04:31:22;;;;;;;;;;;;;;;13.60;100.00;102622.69;5117401;28;20031;-37
2023/09/04 04:33:48;;;;;;;8.95;6.88;;;;;;;13.39;100.00;102595.72;5116271;28;19911;-37
2023/09/04 04:36:13;;;;;;;8.52;7.38;;;;;;;13.43;100.00;102604.31;5117493;28;20027;-37
2023/09/04 04:38:39;;;;;;;9.20;8.40;;;;;;;13.39;100.00;102615.56;5117249;28;20027;-37
2023/09/04 04:41:04;;;;;;;11.52;8.65;;;;;;;13.46;100.00;102631.88;5116214;28;20028;-37
2023/09/04 04:43:30;;;;;;;8.32;7.53;;;;;;;13.50;100.00;102638.56;5117077;28;20386;-37
2023/09/04 04:45:55;;;;;;;9.35;8.10;;;;;;;13.55;100.00;102635.25;5116326;28;20053;-37
2023/09/04 04:48:21;;;;;;;9.25;8.23;;;;;;;13.40;100.00;102627.28;5117009;28;20024;-37
2023/09/04 04:50:46;;;;;;;8.35;7.55;;;;;;;13.57;100.00;102639.44;5116605;28;20016;-37
2023/09/04 04:53:12;;;;;;;9.48;8.57;;;;;;;13.36;100.00;102626.00;5116504;28;20081;-37
2023/09/04 04:55:37;;;;;;;7.75;7.05;;;;;;;13.50;100.00;102624.16;5116085;28;20023;-35
2023/09/04 04:58:02;;;;;;;;;;;;;;;13.60;100.00;102621.88;5117323;28;20414;-36
2023/09/04 05:00:33;;;;;;;8.55;7.75;;;;;;;13.50;100.00;102625.00;5116138;28;19907;-37
2023/09/04 05:02:58;;;;;;;8.00;7.20;;;;;;;13.49;100.00;102623.31;5116659;28;20406;-37
2023/09/04 05:05:24;;;;;;;;;;;;;;;13.53;100.00;102627.31;5116164;28;20030;-37
2023/09/04 05:07:49;;;;;;;8.83;7.97;;;;;;;13.36;100.00;102621.41;5116292;28;19907;-35
2023/09/04 05:10:14;;;;;;;9.32;8.50;;;;;;;13.35;100.00;102610.75;5116738;28;20735;-36
2023/09/04 05:12:40;;;;;;;9.02;8.13;;;;;;;13.43;100.00;102626.88;5115963;28;20077;-36
2023/09/04 05:15:06;;;;;;;9.55;8.55;;;;;;;13.32;100.00;102625.59;5115775;28;20024;-36
2023/09/04 05:17:32;;;;;;;9.27;8.48;;;;;;;13.29;100.00;102617.84;5115778;28;20016;-36
2023/09/04 05:19:57;;;;;;;8.93;8.07;;;;;;;13.41;100.00;102618.06;5115447;28;20046;-36
2023/09/04 05:22:22;;;;;;;9.07;8.17;;;;;;;13.41;100.00;102623.50;5115991;28;20034;-36
2023/09/04 05:24:48;;;;;;;9.73;8.77;;;;;;;13.45;100.00;102624.78;5115875;28;20809;-36
2023/09/04 05:27:13;;;;;;;9.02;8.13;;;;;;;13.53;100.00;102629.19;5115381;28;20077;-36
2023/09/04 05:29:38;;;;;;;8.98;8.18;;;;;;;13.54;100.00;102628.97;5115563;28;20065;-36
2023/09/04 05:32:04;;;;;;;9.52;7.90;;;;;;;13.68;100.00;102612.69;5097099;28;20047;-36
2023/09/04 05:34:29;;;;;;;;;;;;;;;13.82;100.00;102625.22;5115540;28;20050;-37
2023/09/04 05:36:55;;;;;;;8.47;7.13;;;;;;;13.81;100.00;102612.66;5115390;28;19904;-36
2023/09/04 05:39:20;;;;;;;10.85;8.20;;;;;;;13.95;100.00;102619.78;5116097;28;20278;-37
2023/09/04 05:41:46;;;;;;;7.90;7.20;;;;;;;14.05;100.00;102622.91;5115356;28;20107;-37
2023/09/04 05:44:11;;;;;;;9.70;8.32;;;;;;;14.06;100.00;102623.75;5115747;28;20039;-36
2023/09/04 05:46:36;;;;;;;8.70;7.88;;;;;;;14.15;100.00;102620.59;5115238;28;20032;-36
2023/09/04 05:49:02;;;;;;;9.10;8.20;;;;;;;14.15;100.00;102630.63;5115065;28;20024;-36
2023/09/04 05:51:28;;;;;;;9.00;7.43;;;;;;;14.13;100.00;102619.97;5115739;28;20027;-36
2023/09/04 05:53:53;;;;;;;9.85;8.75;;;;;;;14.23;100.00;102621.41;5114854;28;20038;-36
2023/09/04 05:56:18;;;;;;;;;;;;;;;14.42;100.00;102631.44;5116128;28;20026;-37
2023/09/04 05:58:45;;;;;;;9.70;8.70;;;;;;;14.33;100.00;102632.69;5115376;28;20363;-36
2023/09/04 06:01:12;;;;;;;9.68;8.77;;;;;;;14.48;100.00;102638.75;5114617;28;20267;-36
2023/09/04 06:03:40;;;;;;;10.32;9.32;;;;;;;14.45;100.00;102631.00;5115182;28;20027;-36
2023/09/04 06:06:06;;;;;;;11.82;9.13;;;;;;;14.54;100.00;102632.50;5114797;28;20037;-36
2023/09/04 06:08:32;;;;;;;;;;;;;;;14.62;100.00;102640.41;5115032;28;20397;-36
2023/09/04 06:10:57;;;;;;;9.73;7.93;;;;;;;14.57;100.00;102640.22;5114735;28;19907;-37
2023/09/04 06:13:22;;;;;;;;;;;;;;;14.66;100.00;102644.38;5114894;28;20023;-36
2023/09/04 06:15:51;;;;;;;10.07;9.10;;;;;;;14.56;100.00;102637.72;5114396;28;19914;-36
2023/09/04 06:18:16;;;;;;;9.73;8.82;;;;;;;14.67;100.00;102634.31;5114290;28;20273;-36
2023/09/04 06:20:42;;;;;;;10.63;9.13;;;;;;;14.68;100.00;102631.38;5115152;28;20123;-37
2023/09/04 06:23:07;;;;;;;;;;;;;;;14.81;100.00;102625.03;5115066;28;20028;-36
2023/09/04 06:25:38;;;;;;;9.85;8.43;;;;;;;14.81;100.00;102616.88;5114763;28;19911;-36
2023/09/04 06:28:04;;;;;;;11.20;9.48;;;;;;;14.95;100.00;102631.28;5114496;28;20030;-36
2023/09/04 06:30:30;;;;;;;12.55;10.15;;;;;;;14.94;100.00;102627.72;5114070;28;20030;-36
2023/09/04 06:32:55;;;;;;;14.02;9.73;;;;;;;15.02;100.00;102628.50;5114663;28;20011;-36
2023/09/04 06:35:20;;;;;;;;;;;;;;;15.13;100.00;102634.13;5114723;28;20448;-36
2023/09/04 06:37:46;;;;;;;10.85;9.75;;;;;;;15.11;100.00;102625.31;5114776;28;19907;-36
2023/09/04 06:40:11;;;;;;;;;;;;;;;15.23;100.00;102638.28;5114725;28;20023;-36
2023/09/04 06:42:36;;;;;;;11.48;10.27;;;;;;;15.15;100.00;102621.09;5114884;28;19904;-36
2023/09/04 06:45:02;;;;;;;11.13;10.02;;;;;;;15.22;100.00;102625.66;5113876;28;20020;-37
2023/09/04 06:47:27;;;;;;;;;;;;;;;15.33;100.00;102625.81;5115227;28;20072;-36
2023/09/04 06:49:52;;;;;;;11.93;10.23;;;;;;;15.17;100.00;102609.97;5114425;28;20255;-36
2023/09/04 06:52:18;;;;;;;10.50;9.50;;;;;;;15.28;100.00;102613.91;5114145;28;20394;-36
2023/09/04 06:54:43;;;;;;;;;;;;;;;15.47;100.00;102623.84;5115117;28;20024;-36
2023/09/04 06:57:08;;;;;;;10.20;9.30;;;;;;;15.48;100.00;102622.78;5114298;28;19904;-36
2023/09/04 06:59:34;;;;;;;11.07;9.23;;;;;;;15.44;100.00;102606.03;5114481;28;20353;-36
2023/09/04 07:01:59;;;;;;;;;;;;;;;15.66;100.00;102617.44;5114498;28;20081;-36
2023/09/04 07:04:24;;;;;;;9.77;8.90;;;;;;;15.73;100.00;102611.94;5113978;28;20271;-36
2023/09/04 07:06:49;;;;;;;;;;;;;;;15.85;100.00;102610.13;5114414;28;20257;-36
2023/09/04 07:09:15;;;;;;;9.43;7.77;;;;;;;15.95;100.00;102615.91;5114007;28;19907;-36
2023/09/04 07:11:40;;;;;;;;;;;;;;;16.09;100.00;102611.16;5097050;28;20277;-36
2023/09/04 07:14:05;;;;;;;8.63;7.80;;;;;;;16.19;100.00;102610.66;5114247;28;19998;-37
2023/09/04 07:16:37;;;;;;;;;;;;;;;16.34;100.00;102613.84;5114630;28;20265;-36
2023/09/04 07:19:02;;;;;;;9.25;7.72;;;;;;;16.39;100.00;102608.53;5114187;28;20335;-36
2023/09/04 07:21:27;;;;;;;9.45;7.82;;;;;;;16.48;100.00;102607.19;5118639;28;20049;-37
2023/09/04 07:23:53;;;;;;;;;;;;;;;16.60;100.00;102606.44;5118358;28;20028;-36
2023/09/04 07:26:18;;;;;;;7.53;6.83;;;;;;;16.68;100.00;102603.38;5117955;28;19995;-36
2023/09/04 07:28:43;;;;;;;;;;;;;;;16.79;100.00;102601.81;5118045;28;20292;-36
2023/09/04 07:31:19;;;;;;;9.03;6.67;;;;;;;16.96;100.00;102605.56;5117804;28;19958;-36
2023/09/04 07:33:49;;;;;;;7.32;6.53;;;;;;;17.00;100.00;102604.06;5117824;28;20253;-37
2023/09/04 07:36:14;;;;;;;7.78;6.95;;;;;;;17.08;100.00;102609.22;5117679;28;20106;-37
2023/09/04 07:38:40;;;;;;;;;;;;;;;17.19;100.00;102616.59;5118155;28;20110;-36
2023/09/04 07:41:06;;;;;;;8.32;6.90;;;;;;;17.21;100.00;102619.09;5117326;28;19922;-36
2023/09/04 07:43:31;;;;;;;;;;;;;;;17.27;100.00;102614.59;5118947;28;20031;-36
2023/09/04 07:45:57;;;;;;;7.65;6.40;;;;;;;17.27;100.00;102617.34;5117911;28;20388;-36
2023/09/04 07:48:23;;;;;;;;;;;;;;;17.38;100.00;102619.28;5118559;28;20023;-36
2023/09/04 07:50:50;;;;;;;8.75;6.55;;;;;;;17.43;100.00;102613.94;5117408;28;20397;-36
2023/09/04 07:53:15;;;;;;;7.07;6.28;;;;;;;17.47;100.00;102607.78;5118251;28;20024;-36
2023/09/04 07:55:43;;;;;;;;;;;;;;;17.63;100.00;102616.38;5117568;28;20370;-36
2023/09/04 07:58:10;;;;;;;9.07;6.65;;;;;;;17.59;100.00;102609.69;5117199;28;19915;-36
2023/09/04 08:00:36;;;;;;;7.97;7.22;;;;;;;17.65;100.00;102611.47;5117275;28;20027;-37
2023/09/04 08:03:02;;;;;;;;;;;;;;;17.78;100.00;102610.47;5117698;28;20475;-37
2023/09/04 08:05:27;;;;;;;6.95;6.25;;;;;;;17.84;100.00;102607.63;5117175;28;19994;-36
2023/09/04 08:07:52;;;;;;;;;;;;;;;17.92;100.00;102599.06;5117303;28;20023;-37
2023/09/04 08:10:19;;;;;;;8.07;7.27;;;;;;;17.88;100.00;102595.13;5116851;28;19911;-36
2023/09/04 08:12:44;;;;;;;7.72;6.95;;;;;;;18.01;100.00;102602.28;5116881;28;20253;-36
2023/09/04 08:15:10;;;;;;;;;;;;;;;18.10;100.00;102614.50;5117398;28;20355;-36
2023/09/04 08:17:36;;;;;;;7.18;6.57;;;;;;;18.14;100.00;102617.63;5116834;28;19908;-36
2023/09/04 08:20:02;;;;;;;6.82;6.22;;;;;;;18.21;100.00;102612.88;5116634;28;20019;-36
2023/09/04 08:22:27;;;;;;;;;;;;;;;18.30;100.00;102607.84;5117097;28;20375;-36
2023/09/04 08:24:55;;;;;;;6.95;6.28;;;;;;;18.36;100.00;102599.50;5116909;28;20006;-36
2023/09/04 08:27:20;;;;;;;7.20;6.18;;;;;;;18.41;100.00;102602.34;5116514;28;20019;-36
2023/09/04 08:29:46;;;;;;;;;;;;;;;18.53;100.00;102605.88;5117265;28;20073;-36
2023/09/04 08:32:11;;;;;;;6.70;6.00;;;;;;;18.59;100.00;102600.50;5116971;28;19907;-36
2023/09/04 08:34:36;;;;;;;;;;;;;;;18.68;100.00;102602.66;5117094;28;20597;-36
2023/09/04 08:37:02;;;;;;;7.03;6.33;;;;;;;18.74;100.00;102601.72;5116387;28;19911;-36
2023/09/04 08:39:27;;;;;;;;;;;;;;;18.79;100.00;102587.28;5116899;28;20729;-36
2023/09/04 08:41:53;;;;;;;9.03;6.00;;;;;;;18.80;100.00;102588.13;5116451;28;19907;-36
2023/09/04 08:44:19;;;;;;;6.95;6.03;;;;;;;18.95;100.00;102591.16;5116424;28;20293;-36
2023/09/04 08:46:45;;;;;;;;;;;;;;;19.06;100.00;102592.16;5116546;28;20107;-36
2023/09/04 08:49:13;;;;;;;5.93;5.43;;;;;;;19.10;100.00;102594.19;5116306;28;20256;-37
2023/09/04 08:51:38;;;;;;;7.53;5.40;;;;;;;19.27;100.00;102591.44;5116255;28;20508;-36
2023/09/04 08:54:04;;;;;;;;;;;;;;;19.39;100.00;102594.16;5116881;28;20023;-36
2023/09/04 08:56:30;;;;;;;6.00;5.38;;;;;;;19.45;100.00;102591.22;5117024;28;19907;-37
2023/09/04 08:58:56;;;;;;;9.27;5.65;;;;;;;19.53;100.00;102598.22;5116508;28;20058;-36
2023/09/04 09:01:21;;;;;;;;;;;;;;;19.66;100.00;102600.66;5116791;28;20031;-35
2023/09/04 09:03:48;;;;;;;5.28;4.78;;;;;;;19.75;100.00;102588.19;5116299;28;19907;-35
2023/09/04 09:06:13;;;;;;;6.55;5.35;;;;;;;19.89;100.00;102580.44;5116324;28;20055;-36
2023/09/04 09:08:42;;;;;;;;;;;;;;;20.07;100.00;102593.06;5117334;28;20482;-36
2023/09/04 09:11:08;;;;;;;5.93;5.18;;;;;;;20.13;100.00;102592.06;5115596;28;19908;-36
2023/09/04 09:13:34;;;;;;;5.15;4.40;;;;;;;20.19;100.00;102573.72;5116465;28;20098;-36
2023/09/04 09:16:00;;;;;;;5.25;4.45;;;;;;;20.32;100.00;102576.13;5115501;28;20042;-36
2023/09/04 09:18:38;;;;;;;6.07;5.20;;;;;;;20.34;100.00;102579.41;5116004;28;20051;-36
2023/09/04 09:21:24;;;;;;;6.65;4.72;;;;;;;20.37;100.00;102589.09;5115354;28;20102;-36
2023/09/04 09:24:06;;;;;;;6.32;4.88;;;;;;;20.38;100.00;102590.75;5116273;28;20023;-36
2023/09/04 09:26:31;;;;;;;5.07;4.25;;;;;;;20.38;100.00;102583.31;5115908;28;20024;-36
2023/09/04 09:28:57;;;;;;;4.38;3.97;;;;;;;20.38;100.00;102571.50;5115562;28;20471;-36
2023/09/04 09:31:22;;;;;;;6.05;3.63;;;;;;;20.51;100.00;102585.72;5116022;28;20019;-36
2023/09/04 09:33:48;;;;;;;6.13;4.00;;;;;;;20.65;100.00;102594.44;5116040;28;20028;-36
2023/09/04 09:36:14;;;;;;;4.85;4.20;;;;;;;20.70;100.00;102574.41;5115592;28;20024;-36
2023/09/04 09:38:44;;;;;;;4.30;3.90;;;;;;;20.81;100.00;102582.50;5115572;28;20333;-36
2023/09/04 09:41:12;;;;;;;5.05;3.88;;;;;;;20.91;100.00;102590.03;5115168;28;20341;-37
2023/09/04 09:43:37;;;;;;;5.70;3.72;;;;;;;21.08;100.00;102581.69;5114889;28;20019;-36
2023/09/04 09:46:03;;;;;;;3.90;3.28;;;;;;;21.22;97.91;102577.41;5115188;28;20019;-36
2023/09/04 09:48:30;;;;;;;2.90;2.60;;;;;;;21.38;96.66;102578.44;5115583;28;20023;-37
2023/09/04 09:50:57;;;;;;;4.05;3.30;;;;;;;21.51;92.31;102582.66;5115167;28;20027;-36
2023/09/04 09:53:22;;;;;;;5.05;3.13;;;;;;;21.65;96.10;102574.78;5114850;28;20031;-36
2023/09/04 09:55:48;;;;;;;7.55;3.10;;;;;;;21.72;94.44;102570.75;5115334;28;20076;-36
2023/09/04 09:58:16;;;;;;;5.13;3.92;;;;;;;21.80;97.78;102574.91;5115237;28;20043;-36
2023/09/04 10:00:42;;;;;;;5.20;3.90;;;;;;;21.81;95.29;102571.91;5115522;28;20054;-37
2023/09/04 10:03:07;;;;;;;4.10;3.30;;;;;;;21.94;94.16;102564.25;5115233;28;20364;-37
2023/09/04 10:05:34;;;;;;;5.65;3.20;;;;;;;21.99;95.53;102570.63;5115176;28;20016;-37
2023/09/04 10:08:02;;;;;;;3.78;3.38;;;;;;;22.05;91.59;102563.22;5115164;28;20082;-37
2023/09/04 10:10:30;;;;;;;5.55;3.00;;;;;;;22.10;88.80;102554.97;5114163;28;20027;-37
2023/09/04 10:13:04;;;;;;;4.47;2.95;;;;;;;22.23;88.32;102554.53;5114433;28;20019;-37
2023/09/04 10:15:34;;;;;;;4.60;3.00;;;;;;;22.41;89.88;102544.97;5114278;28;20106;-37
2023/09/04 10:18:21;;;;;;;4.53;2.90;;;;;;;22.42;88.99;102545.81;5114598;28;20023;-37
2023/09/04 10:20:48;;;;;;;4.28;2.78;;;;;;;22.51;88.54;102549.69;5114561;28;20030;-37
2023/09/04 10:23:19;;;;;;;3.38;2.45;;;;;;;22.47;89.80;102554.09;5115180;28;20023;-37
2023/09/04 10:25:53;;;;;;;3.63;2.40;;;;;;;22.47;89.48;102559.59;5114288;28;20028;-36
2023/09/04 10:28:29;;;;;;;5.13;2.55;;;;;;;22.45;85.70;102546.09;5114471;28;20077;-37
2023/09/04 10:30:57;;;;;;;2.22;2.03;;;;;;;22.53;84.04;102547.50;5114138;28;20026;-36
2023/09/04 10:33:23;;;;;;;3.25;2.10;;;;;;;22.61;85.35;102544.22;5114702;28;20064;-37
2023/09/04 10:35:49;;;;;;;2.58;1.95;;;;;;;22.74;84.31;102537.34;5114037;28;20507;-37
2023/09/04 10:38:14;;;;;;;2.40;2.20;;;;;;;22.70;85.55;102539.00;5114472;28;20444;-36
2023/09/04 10:40:41;;;;;;;3.33;2.00;;;;;;;22.75;82.02;102528.00;5114291;28;20027;-36
2023/09/04 10:43:10;;;;;;;4.97;2.13;;;;;;;22.93;83.63;102532.16;5114306;28;20031;-37
2023/09/04 10:45:35;;;;;;;4.68;2.10;;;;;;;22.96;81.62;102523.34;5113819;28;20035;-36
2023/09/04 10:48:01;;;;;;;2.80;1.85;;;;;;;23.06;83.76;102518.69;5114923;28;20031;-36
2023/09/04 10:50:39;;;;;;;2.45;2.17;;;;;;;23.21;82.06;102526.13;5113837;28;20468;-36
2023/09/04 10:53:06;;;;;;;3.33;2.17;;;;;;;23.23;81.12;102521.19;5114297;28;20020;-37
2023/09/04 10:55:35;;;;;;;2.50;2.00;;;;;;;23.38;79.53;102518.41;5114396;28;20023;-37
2023/09/04 10:58:03;;;;;;;2.20;2.00;;;;;;;23.46;80.92;102507.91;5114510;28;20039;-37
2023/09/04 11:00:32;;;;;;;3.00;1.90;;;;;;;23.53;82.74;102511.22;5113645;28;20028;-37
2023/09/04 11:03:13;;;;;;;3.35;2.00;;;;;;;23.62;81.32;102504.84;5114453;28;20059;-37
2023/09/04 11:06:20;;;;;;;2.45;1.67;;;;;;;23.72;77.19;102512.31;5114901;28;20027;-37
2023/09/04 11:08:50;;;;;;;1.83;1.38;;;;;;;23.64;74.96;102501.84;5011600;28;20091;-37
2023/09/04 11:11:20;;;;;;;3.25;1.50;;;;;;;23.62;71.05;102496.56;5011331;28;20035;-37
2023/09/04 11:13:55;;;;;;;2.25;1.48;;;;;;;23.77;73.14;102492.16;5067253;28;20114;-38
2023/09/04 11:16:20;;;;;;;2.58;1.73;;;;;;;23.83;71.07;102497.38;5113948;28;20030;-37
2023/09/04 11:18:46;;;;;;;3.15;1.90;;;;;;;24.00;75.86;102493.44;5113762;28;20016;-37
2023/09/04 11:21:14;;;;;;;4.43;1.50;;;;;;;24.14;72.70;102478.72;5114051;28;20495;-37
2023/09/04 11:23:40;;;;;;;2.38;1.58;;;;;;;24.18;71.78;102480.94;5114608;28;20090;-35
2023/09/04 11:26:06;;;;;;;2.55;1.70;;;;;;;24.31;77.28;102477.56;5113651;28;20023;-36